sensor_id;sensor_type;location;lat;lon;timestamp;P1;durP1;ratioP1;P2;durP2;ratioP2
61685;SDS011;47592;45.904;8.978;2022-09-09T00:00:31;8.05;;;3.63;;
61685;SDS011;47592;45.904;8.978;2022-09-09T00:03:12;7.65;;;3.65;;
61685;SDS011;47592;45.904;8.978;2022-09-09T00:05:51;7.75;;;3.70;;
61685;SDS011;47592;45.904;8.978;2022-09-09T00:08:46;7.20;;;3.60;;
61685;SDS011;47592;45.904;8.978;2022-09-09T00:11:42;10.15;;;3.80;;
61685;SDS011;47592;45.904;8.978;2022-09-09T00:14:11;6.00;;;3.30;;
61685;SDS011;47592;45.904;8.978;2022-09-09T00:16:40;6.75;;;3.33;;
61685;SDS011;47592;45.904;8.978;2022-09-09T00:19:15;7.97;;;3.85;;
61685;SDS011;47592;45.904;8.978;2022-09-09T00:24:46;9.88;;;3.50;;
61685;SDS011;47592;45.904;8.978;2022-09-09T00:27:25;8.13;;;3.70;;
61685;SDS011;47592;45.904;8.978;2022-09-09T00:32:36;7.80;;;3.80;;
61685;SDS011;47592;45.904;8.978;2022-09-09T00:37:46;7.43;;;3.60;;
61685;SDS011;47592;45.904;8.978;2022-09-09T00:40:22;6.13;;;3.28;;
61685;SDS011;47592;45.904;8.978;2022-09-09T00:43:10;5.80;;;3.67;;
61685;SDS011;47592;45.904;8.978;2022-09-09T00:48:23;6.22;;;3.58;;
61685;SDS011;47592;45.904;8.978;2022-09-09T00:51:19;8.05;;;3.88;;
61685;SDS011;47592;45.904;8.978;2022-09-09T00:56:30;6.53;;;3.65;;
61685;SDS011;47592;45.904;8.978;2022-09-09T01:01:35;9.32;;;3.60;;
61685;SDS011;47592;45.904;8.978;2022-09-09T01:04:01;9.18;;;3.63;;
61685;SDS011;47592;45.904;8.978;2022-09-09T01:06:30;7.07;;;3.60;;
61685;SDS011;47592;45.904;8.978;2022-09-09T01:14:48;7.00;;;3.60;;
61685;SDS011;47592;45.904;8.978;2022-09-09T01:22:14;6.15;;;3.30;;
61685;SDS011;47592;45.904;8.978;2022-09-09T01:27:44;8.43;;;3.50;;
61685;SDS011;47592;45.904;8.978;2022-09-09T01:30:15;9.45;;;3.67;;
61685;SDS011;47592;45.904;8.978;2022-09-09T01:32:42;8.32;;;3.22;;
61685;SDS011;47592;45.904;8.978;2022-09-09T01:35:12;7.53;;;3.50;;
61685;SDS011;47592;45.904;8.978;2022-09-09T01:38:00;7.45;;;3.08;;
61685;SDS011;47592;45.904;8.978;2022-09-09T01:40:25;10.13;;;3.78;;
61685;SDS011;47592;45.904;8.978;2022-09-09T01:42:51;6.95;;;3.42;;
61685;SDS011;47592;45.904;8.978;2022-09-09T01:45:17;8.48;;;3.33;;
61685;SDS011;47592;45.904;8.978;2022-09-09T01:47:43;7.18;;;3.58;;
61685;SDS011;47592;45.904;8.978;2022-09-09T01:50:09;8.25;;;3.35;;
61685;SDS011;47592;45.904;8.978;2022-09-09T01:52:36;8.18;;;3.65;;
61685;SDS011;47592;45.904;8.978;2022-09-09T01:55:01;5.68;;;3.35;;
61685;SDS011;47592;45.904;8.978;2022-09-09T01:57:28;7.68;;;3.60;;
61685;SDS011;47592;45.904;8.978;2022-09-09T02:07:49;8.27;;;3.20;;
61685;SDS011;47592;45.904;8.978;2022-09-09T02:12:53;7.30;;;3.00;;
61685;SDS011;47592;45.904;8.978;2022-09-09T02:18:06;5.13;;;2.60;;
61685;SDS011;47592;45.904;8.978;2022-09-09T02:20:33;4.70;;;2.50;;
61685;SDS011;47592;45.904;8.978;2022-09-09T02:23:01;6.53;;;2.55;;
61685;SDS011;47592;45.904;8.978;2022-09-09T02:25:28;4.68;;;2.67;;
61685;SDS011;47592;45.904;8.978;2022-09-09T02:27:54;6.97;;;2.80;;
61685;SDS011;47592;45.904;8.978;2022-09-09T02:30:20;4.65;;;2.40;;
61685;SDS011;47592;45.904;8.978;2022-09-09T02:32:45;4.93;;;2.35;;
61685;SDS011;47592;45.904;8.978;2022-09-09T02:35:14;8.27;;;2.60;;
61685;SDS011;47592;45.904;8.978;2022-09-09T02:37:42;4.85;;;2.70;;
61685;SDS011;47592;45.904;8.978;2022-09-09T02:40:09;6.35;;;2.80;;
61685;SDS011;47592;45.904;8.978;2022-09-09T02:42:42;7.32;;;2.92;;
61685;SDS011;47592;45.904;8.978;2022-09-09T02:45:10;6.93;;;2.60;;
61685;SDS011;47592;45.904;8.978;2022-09-09T02:50:25;4.97;;;2.53;;
61685;SDS011;47592;45.904;8.978;2022-09-09T02:53:06;6.85;;;2.80;;
61685;SDS011;47592;45.904;8.978;2022-09-09T02:55:37;7.43;;;2.40;;
61685;SDS011;47592;45.904;8.978;2022-09-09T02:58:08;4.93;;;2.75;;
61685;SDS011;47592;45.904;8.978;2022-09-09T03:00:36;5.88;;;2.53;;
61685;SDS011;47592;45.904;8.978;2022-09-09T03:03:06;5.72;;;2.05;;
61685;SDS011;47592;45.904;8.978;2022-09-09T03:05:33;6.07;;;2.50;;
61685;SDS011;47592;45.904;8.978;2022-09-09T03:07:59;5.32;;;2.30;;
61685;SDS011;47592;45.904;8.978;2022-09-09T03:10:24;5.60;;;2.20;;
61685;SDS011;47592;45.904;8.978;2022-09-09T03:12:49;5.18;;;2.20;;
61685;SDS011;47592;45.904;8.978;2022-09-09T03:15:15;5.10;;;2.40;;
61685;SDS011;47592;45.904;8.978;2022-09-09T03:17:41;6.57;;;2.28;;
61685;SDS011;47592;45.904;8.978;2022-09-09T03:20:06;5.72;;;2.70;;
61685;SDS011;47592;45.904;8.978;2022-09-09T03:22:33;5.43;;;2.47;;
61685;SDS011;47592;45.904;8.978;2022-09-09T03:24:58;7.22;;;3.20;;
61685;SDS011;47592;45.904;8.978;2022-09-09T03:27:24;8.00;;;2.35;;
61685;SDS011;47592;45.904;8.978;2022-09-09T03:29:49;5.72;;;2.10;;
61685;SDS011;47592;45.904;8.978;2022-09-09T03:32:18;5.28;;;2.30;;
61685;SDS011;47592;45.904;8.978;2022-09-09T03:34:43;4.78;;;2.08;;
61685;SDS011;47592;45.904;8.978;2022-09-09T03:37:09;7.03;;;2.28;;
61685;SDS011;47592;45.904;8.978;2022-09-09T03:39:35;6.57;;;2.25;;
61685;SDS011;47592;45.904;8.978;2022-09-09T03:42:00;6.93;;;2.40;;
61685;SDS011;47592;45.904;8.978;2022-09-09T03:44:29;5.07;;;2.20;;
61685;SDS011;47592;45.904;8.978;2022-09-09T03:46:55;5.55;;;2.17;;
61685;SDS011;47592;45.904;8.978;2022-09-09T03:49:21;4.80;;;2.08;;
61685;SDS011;47592;45.904;8.978;2022-09-09T03:51:47;4.18;;;1.90;;
61685;SDS011;47592;45.904;8.978;2022-09-09T03:54:12;4.80;;;1.90;;
61685;SDS011;47592;45.904;8.978;2022-09-09T03:56:38;4.63;;;2.00;;
61685;SDS011;47592;45.904;8.978;2022-09-09T03:59:03;5.25;;;2.10;;
61685;SDS011;47592;45.904;8.978;2022-09-09T04:01:29;5.95;;;1.90;;
61685;SDS011;47592;45.904;8.978;2022-09-09T04:03:54;5.00;;;2.10;;
61685;SDS011;47592;45.904;8.978;2022-09-09T04:06:23;4.63;;;1.90;;
61685;SDS011;47592;45.904;8.978;2022-09-09T04:08:48;5.25;;;2.08;;
61685;SDS011;47592;45.904;8.978;2022-09-09T04:11:14;5.25;;;1.75;;
61685;SDS011;47592;45.904;8.978;2022-09-09T04:13:40;5.07;;;1.80;;
61685;SDS011;47592;45.904;8.978;2022-09-09T04:16:07;5.22;;;1.73;;
61685;SDS011;47592;45.904;8.978;2022-09-09T04:18:33;4.53;;;1.80;;
61685;SDS011;47592;45.904;8.978;2022-09-09T04:20:59;4.25;;;1.67;;
61685;SDS011;47592;45.904;8.978;2022-09-09T04:23:26;4.40;;;1.52;;
61685;SDS011;47592;45.904;8.978;2022-09-09T04:25:54;4.90;;;1.90;;
61685;SDS011;47592;45.904;8.978;2022-09-09T04:28:20;4.47;;;1.92;;
61685;SDS011;47592;45.904;8.978;2022-09-09T04:30:47;5.18;;;1.70;;
61685;SDS011;47592;45.904;8.978;2022-09-09T04:33:13;3.90;;;1.80;;
61685;SDS011;47592;45.904;8.978;2022-09-09T04:35:39;4.45;;;1.70;;
61685;SDS011;47592;45.904;8.978;2022-09-09T04:38:09;4.70;;;1.85;;
61685;SDS011;47592;45.904;8.978;2022-09-09T04:40:34;6.18;;;2.00;;
61685;SDS011;47592;45.904;8.978;2022-09-09T04:43:00;4.10;;;1.83;;
61685;SDS011;47592;45.904;8.978;2022-09-09T04:45:28;5.22;;;1.75;;
61685;SDS011;47592;45.904;8.978;2022-09-09T04:47:53;5.25;;;1.80;;
61685;SDS011;47592;45.904;8.978;2022-09-09T04:50:19;5.70;;;2.03;;
61685;SDS011;47592;45.904;8.978;2022-09-09T04:52:44;4.75;;;1.60;;
61685;SDS011;47592;45.904;8.978;2022-09-09T04:55:09;5.63;;;1.77;;
61685;SDS011;47592;45.904;8.978;2022-09-09T04:57:35;4.25;;;1.52;;
61685;SDS011;47592;45.904;8.978;2022-09-09T05:00:00;5.55;;;1.75;;
61685;SDS011;47592;45.904;8.978;2022-09-09T05:02:28;8.73;;;3.38;;
61685;SDS011;47592;45.904;8.978;2022-09-09T05:04:54;5.15;;;2.10;;
61685;SDS011;47592;45.904;8.978;2022-09-09T05:07:19;4.35;;;1.80;;
61685;SDS011;47592;45.904;8.978;2022-09-09T05:09:45;4.75;;;1.70;;
61685;SDS011;47592;45.904;8.978;2022-09-09T05:12:11;4.55;;;1.80;;
61685;SDS011;47592;45.904;8.978;2022-09-09T05:14:37;4.22;;;1.70;;
61685;SDS011;47592;45.904;8.978;2022-09-09T05:17:03;3.42;;;1.30;;
61685;SDS011;47592;45.904;8.978;2022-09-09T05:19:28;5.28;;;1.70;;
61685;SDS011;47592;45.904;8.978;2022-09-09T05:21:56;4.90;;;1.77;;
61685;SDS011;47592;45.904;8.978;2022-09-09T05:24:21;5.32;;;2.10;;
61685;SDS011;47592;45.904;8.978;2022-09-09T05:26:48;5.18;;;1.90;;
61685;SDS011;47592;45.904;8.978;2022-09-09T05:29:13;7.47;;;1.73;;
61685;SDS011;47592;45.904;8.978;2022-09-09T05:31:39;7.18;;;2.20;;
61685;SDS011;47592;45.904;8.978;2022-09-09T05:34:04;5.00;;;1.80;;
61685;SDS011;47592;45.904;8.978;2022-09-09T05:36:30;4.57;;;2.00;;
61685;SDS011;47592;45.904;8.978;2022-09-09T05:38:55;4.78;;;2.10;;
61685;SDS011;47592;45.904;8.978;2022-09-09T05:41:21;5.25;;;2.20;;
61685;SDS011;47592;45.904;8.978;2022-09-09T05:43:48;6.45;;;2.10;;
61685;SDS011;47592;45.904;8.978;2022-09-09T05:46:15;6.18;;;2.00;;
61685;SDS011;47592;45.904;8.978;2022-09-09T05:48:52;4.45;;;2.00;;
61685;SDS011;47592;45.904;8.978;2022-09-09T05:51:23;4.88;;;2.03;;
61685;SDS011;47592;45.904;8.978;2022-09-09T05:53:50;5.20;;;2.38;;
61685;SDS011;47592;45.904;8.978;2022-09-09T05:56:21;5.60;;;1.95;;
61685;SDS011;47592;45.904;8.978;2022-09-09T05:58:49;5.27;;;1.70;;
61685;SDS011;47592;45.904;8.978;2022-09-09T06:01:18;4.60;;;1.98;;
61685;SDS011;47592;45.904;8.978;2022-09-09T06:03:46;4.30;;;1.90;;
61685;SDS011;47592;45.904;8.978;2022-09-09T06:06:19;4.75;;;2.15;;
61685;SDS011;47592;45.904;8.978;2022-09-09T06:08:45;6.18;;;2.50;;
61685;SDS011;47592;45.904;8.978;2022-09-09T06:13:43;5.07;;;2.38;;
61685;SDS011;47592;45.904;8.978;2022-09-09T06:16:12;5.88;;;1.73;;
61685;SDS011;47592;45.904;8.978;2022-09-09T06:18:40;4.53;;;1.40;;
61685;SDS011;47592;45.904;8.978;2022-09-09T06:21:07;4.45;;;1.42;;
61685;SDS011;47592;45.904;8.978;2022-09-09T06:23:34;4.75;;;1.40;;
61685;SDS011;47592;45.904;8.978;2022-09-09T06:26:10;4.45;;;1.25;;
61685;SDS011;47592;45.904;8.978;2022-09-09T06:28:40;3.80;;;1.30;;
61685;SDS011;47592;45.904;8.978;2022-09-09T06:31:08;3.97;;;1.40;;
61685;SDS011;47592;45.904;8.978;2022-09-09T06:33:35;3.03;;;1.10;;
61685;SDS011;47592;45.904;8.978;2022-09-09T06:38:30;3.83;;;1.30;;
61685;SDS011;47592;45.904;8.978;2022-09-09T06:40:56;4.53;;;1.50;;
61685;SDS011;47592;45.904;8.978;2022-09-09T06:43:23;5.75;;;1.60;;
61685;SDS011;47592;45.904;8.978;2022-09-09T06:45:59;5.05;;;1.70;;
61685;SDS011;47592;45.904;8.978;2022-09-09T06:48:25;5.30;;;1.55;;
61685;SDS011;47592;45.904;8.978;2022-09-09T06:51:02;5.10;;;1.33;;
61685;SDS011;47592;45.904;8.978;2022-09-09T06:53:28;4.45;;;1.50;;
61685;SDS011;47592;45.904;8.978;2022-09-09T06:55:53;4.15;;;1.40;;
61685;SDS011;47592;45.904;8.978;2022-09-09T06:58:19;5.90;;;1.83;;
61685;SDS011;47592;45.904;8.978;2022-09-09T07:00:47;3.67;;;1.30;;
61685;SDS011;47592;45.904;8.978;2022-09-09T07:03:13;3.85;;;1.30;;
61685;SDS011;47592;45.904;8.978;2022-09-09T07:05:38;3.55;;;1.20;;
61685;SDS011;47592;45.904;8.978;2022-09-09T07:08:03;3.42;;;1.10;;
61685;SDS011;47592;45.904;8.978;2022-09-09T07:10:29;4.65;;;1.30;;
61685;SDS011;47592;45.904;8.978;2022-09-09T07:12:54;3.78;;;1.02;;
61685;SDS011;47592;45.904;8.978;2022-09-09T07:15:20;5.25;;;1.10;;
61685;SDS011;47592;45.904;8.978;2022-09-09T07:17:46;3.70;;;1.13;;
61685;SDS011;47592;45.904;8.978;2022-09-09T07:20:13;5.03;;;1.10;;
61685;SDS011;47592;45.904;8.978;2022-09-09T07:22:40;4.60;;;1.20;;
61685;SDS011;47592;45.904;8.978;2022-09-09T07:25:05;3.08;;;1.20;;
61685;SDS011;47592;45.904;8.978;2022-09-09T07:27:31;2.97;;;0.95;;
61685;SDS011;47592;45.904;8.978;2022-09-09T07:29:57;3.13;;;1.10;;
61685;SDS011;47592;45.904;8.978;2022-09-09T07:32:22;3.38;;;1.20;;
61685;SDS011;47592;45.904;8.978;2022-09-09T07:34:48;4.10;;;1.15;;
61685;SDS011;47592;45.904;8.978;2022-09-09T07:37:15;2.95;;;1.13;;
61685;SDS011;47592;45.904;8.978;2022-09-09T07:39:41;3.47;;;1.25;;
61685;SDS011;47592;45.904;8.978;2022-09-09T07:42:07;3.85;;;1.20;;
61685;SDS011;47592;45.904;8.978;2022-09-09T07:44:33;3.13;;;1.00;;
61685;SDS011;47592;45.904;8.978;2022-09-09T07:47:00;3.58;;;1.30;;
61685;SDS011;47592;45.904;8.978;2022-09-09T07:49:26;3.17;;;1.02;;
61685;SDS011;47592;45.904;8.978;2022-09-09T07:51:52;5.10;;;1.40;;
61685;SDS011;47592;45.904;8.978;2022-09-09T07:54:18;3.53;;;1.10;;
61685;SDS011;47592;45.904;8.978;2022-09-09T07:56:45;4.93;;;1.10;;
61685;SDS011;47592;45.904;8.978;2022-09-09T07:59:12;3.15;;;1.10;;
61685;SDS011;47592;45.904;8.978;2022-09-09T08:01:45;3.97;;;1.42;;
61685;SDS011;47592;45.904;8.978;2022-09-09T08:04:15;4.57;;;1.50;;
61685;SDS011;47592;45.904;8.978;2022-09-09T08:06:43;4.93;;;1.20;;
61685;SDS011;47592;45.904;8.978;2022-09-09T08:09:11;4.45;;;1.10;;
61685;SDS011;47592;45.904;8.978;2022-09-09T08:11:36;3.88;;;1.40;;
61685;SDS011;47592;45.904;8.978;2022-09-09T08:14:02;3.08;;;1.13;;
61685;SDS011;47592;45.904;8.978;2022-09-09T08:16:29;3.80;;;1.17;;
61685;SDS011;47592;45.904;8.978;2022-09-09T08:18:57;2.90;;;1.05;;
61685;SDS011;47592;45.904;8.978;2022-09-09T08:21:26;3.58;;;1.10;;
61685;SDS011;47592;45.904;8.978;2022-09-09T08:23:54;3.17;;;1.00;;
61685;SDS011;47592;45.904;8.978;2022-09-09T08:26:21;2.95;;;1.10;;
61685;SDS011;47592;45.904;8.978;2022-09-09T08:28:51;3.80;;;1.17;;
61685;SDS011;47592;45.904;8.978;2022-09-09T08:31:22;4.15;;;1.42;;
61685;SDS011;47592;45.904;8.978;2022-09-09T08:33:49;3.10;;;1.00;;
61685;SDS011;47592;45.904;8.978;2022-09-09T08:36:15;3.28;;;1.13;;
61685;SDS011;47592;45.904;8.978;2022-09-09T08:38:46;3.25;;;1.10;;
61685;SDS011;47592;45.904;8.978;2022-09-09T08:47:21;3.58;;;1.45;;
61685;SDS011;47592;45.904;8.978;2022-09-09T08:53:01;4.30;;;1.27;;
61685;SDS011;47592;45.904;8.978;2022-09-09T08:58:11;3.83;;;1.20;;
61685;SDS011;47592;45.904;8.978;2022-09-09T09:03:35;4.32;;;1.20;;
61685;SDS011;47592;45.904;8.978;2022-09-09T09:07:14;3.55;;;1.30;;
61685;SDS011;47592;45.904;8.978;2022-09-09T09:12:07;3.95;;;1.38;;
61685;SDS011;47592;45.904;8.978;2022-09-09T09:14:39;4.38;;;1.30;;
61685;SDS011;47592;45.904;8.978;2022-09-09T09:19:47;3.13;;;1.10;;
61685;SDS011;47592;45.904;8.978;2022-09-09T09:30:02;3.10;;;0.95;;
61685;SDS011;47592;45.904;8.978;2022-09-09T09:32:37;3.80;;;0.90;;
61685;SDS011;47592;45.904;8.978;2022-09-09T09:35:06;3.03;;;1.10;;
61685;SDS011;47592;45.904;8.978;2022-09-09T09:37:35;2.58;;;0.90;;
61685;SDS011;47592;45.904;8.978;2022-09-09T09:40:17;3.35;;;0.98;;
61685;SDS011;47592;45.904;8.978;2022-09-09T09:42:54;2.72;;;0.85;;
61685;SDS011;47592;45.904;8.978;2022-09-09T09:45:43;2.75;;;1.00;;
61685;SDS011;47592;45.904;8.978;2022-09-09T09:48:13;4.07;;;1.10;;
61685;SDS011;47592;45.904;8.978;2022-09-09T09:50:49;3.20;;;1.10;;
61685;SDS011;47592;45.904;8.978;2022-09-09T09:53:27;3.85;;;1.00;;
61685;SDS011;47592;45.904;8.978;2022-09-09T09:58:35;2.72;;;0.93;;
61685;SDS011;47592;45.904;8.978;2022-09-09T10:01:02;3.50;;;1.00;;
61685;SDS011;47592;45.904;8.978;2022-09-09T10:03:31;2.95;;;1.00;;
61685;SDS011;47592;45.904;8.978;2022-09-09T10:06:04;4.05;;;1.20;;
61685;SDS011;47592;45.904;8.978;2022-09-09T10:08:32;3.72;;;1.38;;
61685;SDS011;47592;45.904;8.978;2022-09-09T10:16:25;3.55;;;1.30;;
61685;SDS011;47592;45.904;8.978;2022-09-09T10:35:19;3.28;;;0.82;;
61685;SDS011;47592;45.904;8.978;2022-09-09T10:46:14;3.10;;;0.88;;
61685;SDS011;47592;45.904;8.978;2022-09-09T10:51:44;3.80;;;1.20;;
61685;SDS011;47592;45.904;8.978;2022-09-09T10:57:33;6.03;;;1.10;;
61685;SDS011;47592;45.904;8.978;2022-09-09T11:00:04;3.80;;;1.30;;
61685;SDS011;47592;45.904;8.978;2022-09-09T11:02:32;3.83;;;0.80;;
61685;SDS011;47592;45.904;8.978;2022-09-09T11:05:08;4.25;;;1.00;;
61685;SDS011;47592;45.904;8.978;2022-09-09T11:07:41;3.55;;;1.20;;
61685;SDS011;47592;45.904;8.978;2022-09-09T11:10:16;2.70;;;1.00;;
61685;SDS011;47592;45.904;8.978;2022-09-09T11:12:46;2.70;;;1.00;;
61685;SDS011;47592;45.904;8.978;2022-09-09T11:15:19;4.00;;;1.13;;
61685;SDS011;47592;45.904;8.978;2022-09-09T11:17:52;3.50;;;1.42;;
61685;SDS011;47592;45.904;8.978;2022-09-09T11:20:20;3.40;;;1.20;;
61685;SDS011;47592;45.904;8.978;2022-09-09T11:22:50;3.97;;;1.20;;
61685;SDS011;47592;45.904;8.978;2022-09-09T11:25:20;4.38;;;1.20;;
61685;SDS011;47592;45.904;8.978;2022-09-09T11:41:11;2.92;;;1.20;;
61685;SDS011;47592;45.904;8.978;2022-09-09T11:43:42;4.30;;;1.50;;
61685;SDS011;47592;45.904;8.978;2022-09-09T11:46:21;3.67;;;1.10;;
61685;SDS011;47592;45.904;8.978;2022-09-09T11:49:02;3.08;;;1.17;;
61685;SDS011;47592;45.904;8.978;2022-09-09T11:51:29;3.95;;;1.50;;
61685;SDS011;47592;45.904;8.978;2022-09-09T11:53:57;4.32;;;1.50;;
61685;SDS011;47592;45.904;8.978;2022-09-09T11:58:58;5.70;;;1.50;;
61685;SDS011;47592;45.904;8.978;2022-09-09T12:06:41;3.45;;;1.42;;
61685;SDS011;47592;45.904;8.978;2022-09-09T12:17:20;4.13;;;1.40;;
61685;SDS011;47592;45.904;8.978;2022-09-09T12:19:47;5.38;;;1.30;;
61685;SDS011;47592;45.904;8.978;2022-09-09T12:22:27;4.45;;;1.30;;
61685;SDS011;47592;45.904;8.978;2022-09-09T12:25:04;3.80;;;1.30;;
61685;SDS011;47592;45.904;8.978;2022-09-09T12:27:34;4.00;;;1.30;;
61685;SDS011;47592;45.904;8.978;2022-09-09T12:30:12;2.90;;;1.10;;
61685;SDS011;47592;45.904;8.978;2022-09-09T12:32:40;3.13;;;1.13;;
61685;SDS011;47592;45.904;8.978;2022-09-09T12:35:13;3.67;;;1.42;;
61685;SDS011;47592;45.904;8.978;2022-09-09T12:37:48;4.20;;;1.40;;
61685;SDS011;47592;45.904;8.978;2022-09-09T12:42:49;3.95;;;1.42;;
61685;SDS011;47592;45.904;8.978;2022-09-09T12:45:17;4.75;;;1.20;;
61685;SDS011;47592;45.904;8.978;2022-09-09T12:50:35;5.38;;;1.45;;
61685;SDS011;47592;45.904;8.978;2022-09-09T12:55:52;4.17;;;1.30;;
61685;SDS011;47592;45.904;8.978;2022-09-09T12:58:20;5.20;;;1.50;;
61685;SDS011;47592;45.904;8.978;2022-09-09T13:00:50;2.92;;;1.20;;
61685;SDS011;47592;45.904;8.978;2022-09-09T13:03:21;4.15;;;1.52;;
61685;SDS011;47592;45.904;8.978;2022-09-09T13:05:47;4.50;;;1.48;;
61685;SDS011;47592;45.904;8.978;2022-09-09T13:08:13;3.38;;;1.40;;
61685;SDS011;47592;45.904;8.978;2022-09-09T13:13:35;4.90;;;1.60;;
61685;SDS011;47592;45.904;8.978;2022-09-09T13:16:02;3.83;;;1.70;;
61685;SDS011;47592;45.904;8.978;2022-09-09T13:18:31;4.43;;;1.60;;
61685;SDS011;47592;45.904;8.978;2022-09-09T13:20:59;4.68;;;1.58;;
61685;SDS011;47592;45.904;8.978;2022-09-09T13:23:32;3.90;;;1.50;;
61685;SDS011;47592;45.904;8.978;2022-09-09T13:26:00;4.25;;;1.52;;
61685;SDS011;47592;45.904;8.978;2022-09-09T13:28:29;4.60;;;1.75;;
61685;SDS011;47592;45.904;8.978;2022-09-09T13:30:57;4.63;;;1.88;;
61685;SDS011;47592;45.904;8.978;2022-09-09T13:33:28;4.33;;;1.63;;
61685;SDS011;47592;45.904;8.978;2022-09-09T13:35:57;4.82;;;1.85;;
61685;SDS011;47592;45.904;8.978;2022-09-09T13:38:36;6.07;;;1.85;;
61685;SDS011;47592;45.904;8.978;2022-09-09T13:41:06;5.13;;;1.73;;
61685;SDS011;47592;45.904;8.978;2022-09-09T13:43:43;4.30;;;1.90;;
61685;SDS011;47592;45.904;8.978;2022-09-09T13:51:35;6.20;;;2.10;;
61685;SDS011;47592;45.904;8.978;2022-09-09T13:54:03;4.00;;;1.77;;
61685;SDS011;47592;45.904;8.978;2022-09-09T13:56:31;5.40;;;1.90;;
61685;SDS011;47592;45.904;8.978;2022-09-09T13:58:57;4.20;;;1.88;;
61685;SDS011;47592;45.904;8.978;2022-09-09T14:01:23;4.47;;;1.90;;
61685;SDS011;47592;45.904;8.978;2022-09-09T14:03:48;5.45;;;1.85;;
61685;SDS011;47592;45.904;8.978;2022-09-09T14:06:14;6.35;;;2.72;;
61685;SDS011;47592;45.904;8.978;2022-09-09T14:08:39;4.15;;;1.73;;
61685;SDS011;47592;45.904;8.978;2022-09-09T14:11:05;5.80;;;2.10;;
61685;SDS011;47592;45.904;8.978;2022-09-09T14:13:31;4.40;;;2.00;;
61685;SDS011;47592;45.904;8.978;2022-09-09T14:15:57;4.18;;;1.92;;
61685;SDS011;47592;45.904;8.978;2022-09-09T14:18:22;5.00;;;2.00;;
61685;SDS011;47592;45.904;8.978;2022-09-09T14:20:50;6.78;;;2.30;;
61685;SDS011;47592;45.904;8.978;2022-09-09T14:23:16;5.90;;;2.20;;
61685;SDS011;47592;45.904;8.978;2022-09-09T14:25:42;4.32;;;1.88;;
61685;SDS011;47592;45.904;8.978;2022-09-09T14:28:11;5.10;;;2.00;;
61685;SDS011;47592;45.904;8.978;2022-09-09T14:33:06;5.93;;;2.13;;
61685;SDS011;47592;45.904;8.978;2022-09-09T14:35:33;5.45;;;2.00;;
61685;SDS011;47592;45.904;8.978;2022-09-09T14:37:59;5.93;;;2.20;;
61685;SDS011;47592;45.904;8.978;2022-09-09T14:40:25;6.95;;;2.28;;
61685;SDS011;47592;45.904;8.978;2022-09-09T14:42:52;6.35;;;2.20;;
61685;SDS011;47592;45.904;8.978;2022-09-09T14:45:18;7.85;;;2.40;;
61685;SDS011;47592;45.904;8.978;2022-09-09T14:47:43;5.72;;;2.00;;
61685;SDS011;47592;45.904;8.978;2022-09-09T14:50:09;6.43;;;2.17;;
61685;SDS011;47592;45.904;8.978;2022-09-09T14:52:37;5.97;;;2.42;;
61685;SDS011;47592;45.904;8.978;2022-09-09T14:55:03;4.63;;;1.92;;
61685;SDS011;47592;45.904;8.978;2022-09-09T14:57:29;4.78;;;2.13;;
61685;SDS011;47592;45.904;8.978;2022-09-09T14:59:55;4.63;;;2.05;;
61685;SDS011;47592;45.904;8.978;2022-09-09T15:02:21;4.95;;;2.33;;
61685;SDS011;47592;45.904;8.978;2022-09-09T15:04:47;5.03;;;2.20;;
61685;SDS011;47592;45.904;8.978;2022-09-09T15:07:14;4.13;;;1.90;;
61685;SDS011;47592;45.904;8.978;2022-09-09T15:09:40;6.85;;;2.20;;
61685;SDS011;47592;45.904;8.978;2022-09-09T15:12:06;5.38;;;1.85;;
61685;SDS011;47592;45.904;8.978;2022-09-09T15:14:31;5.03;;;2.13;;
61685;SDS011;47592;45.904;8.978;2022-09-09T15:16:57;5.22;;;2.03;;
61685;SDS011;47592;45.904;8.978;2022-09-09T15:19:23;9.43;;;2.50;;
61685;SDS011;47592;45.904;8.978;2022-09-09T15:21:48;5.20;;;2.17;;
61685;SDS011;47592;45.904;8.978;2022-09-09T15:24:14;5.55;;;2.50;;
61685;SDS011;47592;45.904;8.978;2022-09-09T15:26:41;5.53;;;2.20;;
61685;SDS011;47592;45.904;8.978;2022-09-09T15:29:06;5.50;;;2.00;;
61685;SDS011;47592;45.904;8.978;2022-09-09T15:31:33;6.13;;;2.00;;
61685;SDS011;47592;45.904;8.978;2022-09-09T15:34:02;5.55;;;1.88;;
61685;SDS011;47592;45.904;8.978;2022-09-09T15:38:57;4.78;;;2.30;;
61685;SDS011;47592;45.904;8.978;2022-09-09T15:41:22;4.82;;;2.10;;
61685;SDS011;47592;45.904;8.978;2022-09-09T15:43:49;5.28;;;2.15;;
61685;SDS011;47592;45.904;8.978;2022-09-09T15:46:21;6.05;;;2.30;;
61685;SDS011;47592;45.904;8.978;2022-09-09T15:49:14;4.18;;;2.08;;
61685;SDS011;47592;45.904;8.978;2022-09-09T15:51:44;4.53;;;2.40;;
61685;SDS011;47592;45.904;8.978;2022-09-09T15:54:30;5.80;;;2.60;;
61685;SDS011;47592;45.904;8.978;2022-09-09T15:57:00;5.85;;;2.40;;
61685;SDS011;47592;45.904;8.978;2022-09-09T15:59:27;6.07;;;2.40;;
61685;SDS011;47592;45.904;8.978;2022-09-09T16:01:54;4.55;;;2.20;;
61685;SDS011;47592;45.904;8.978;2022-09-09T16:04:20;4.97;;;2.22;;
61685;SDS011;47592;45.904;8.978;2022-09-09T16:06:49;4.97;;;2.28;;
61685;SDS011;47592;45.904;8.978;2022-09-09T16:09:15;4.90;;;2.15;;
61685;SDS011;47592;45.904;8.978;2022-09-09T16:11:41;6.32;;;2.60;;
61685;SDS011;47592;45.904;8.978;2022-09-09T16:14:06;4.82;;;2.40;;
61685;SDS011;47592;45.904;8.978;2022-09-09T16:16:32;5.38;;;2.33;;
61685;SDS011;47592;45.904;8.978;2022-09-09T16:19:00;5.80;;;2.40;;
61685;SDS011;47592;45.904;8.978;2022-09-09T16:21:33;8.27;;;2.97;;
61685;SDS011;47592;45.904;8.978;2022-09-09T16:24:01;7.50;;;2.70;;
61685;SDS011;47592;45.904;8.978;2022-09-09T16:26:28;4.93;;;2.22;;
61685;SDS011;47592;45.904;8.978;2022-09-09T16:28:55;5.35;;;2.58;;
61685;SDS011;47592;45.904;8.978;2022-09-09T16:31:22;7.53;;;3.10;;
61685;SDS011;47592;45.904;8.978;2022-09-09T16:33:48;5.07;;;2.65;;
61685;SDS011;47592;45.904;8.978;2022-09-09T16:36:16;5.78;;;2.30;;
61685;SDS011;47592;45.904;8.978;2022-09-09T16:38:43;6.35;;;2.90;;
61685;SDS011;47592;45.904;8.978;2022-09-09T16:41:09;5.05;;;2.47;;
61685;SDS011;47592;45.904;8.978;2022-09-09T16:43:35;7.03;;;2.90;;
61685;SDS011;47592;45.904;8.978;2022-09-09T16:46:02;5.90;;;2.80;;
61685;SDS011;47592;45.904;8.978;2022-09-09T16:48:38;6.88;;;4.00;;
61685;SDS011;47592;45.904;8.978;2022-09-09T16:51:04;5.80;;;3.55;;
61685;SDS011;47592;45.904;8.978;2022-09-09T16:53:32;6.05;;;3.17;;
61685;SDS011;47592;45.904;8.978;2022-09-09T16:55:58;7.97;;;3.28;;
61685;SDS011;47592;45.904;8.978;2022-09-09T16:58:30;7.05;;;3.33;;
61685;SDS011;47592;45.904;8.978;2022-09-09T17:00:59;7.32;;;3.03;;
61685;SDS011;47592;45.904;8.978;2022-09-09T17:05:50;6.28;;;2.42;;
61685;SDS011;47592;45.904;8.978;2022-09-09T17:08:15;8.40;;;2.95;;
61685;SDS011;47592;45.904;8.978;2022-09-09T17:10:41;9.40;;;4.55;;
61685;SDS011;47592;45.904;8.978;2022-09-09T17:13:07;9.30;;;3.58;;
61685;SDS011;47592;45.904;8.978;2022-09-09T17:15:32;5.22;;;3.20;;
61685;SDS011;47592;45.904;8.978;2022-09-09T17:17:59;5.32;;;2.53;;
61685;SDS011;47592;45.904;8.978;2022-09-09T17:20:25;5.15;;;2.40;;
61685;SDS011;47592;45.904;8.978;2022-09-09T17:22:50;6.35;;;3.03;;
61685;SDS011;47592;45.904;8.978;2022-09-09T17:25:16;6.70;;;3.28;;
61685;SDS011;47592;45.904;8.978;2022-09-09T17:27:42;6.80;;;3.30;;
61685;SDS011;47592;45.904;8.978;2022-09-09T17:30:08;4.78;;;2.63;;
61685;SDS011;47592;45.904;8.978;2022-09-09T17:32:34;9.25;;;2.92;;
61685;SDS011;47592;45.904;8.978;2022-09-09T17:35:00;11.73;;;8.40;;
61685;SDS011;47592;45.904;8.978;2022-09-09T17:37:26;8.93;;;5.40;;
61685;SDS011;47592;45.904;8.978;2022-09-09T17:39:52;9.32;;;6.47;;
61685;SDS011;47592;45.904;8.978;2022-09-09T17:42:17;10.63;;;7.47;;
61685;SDS011;47592;45.904;8.978;2022-09-09T17:44:43;13.60;;;10.48;;
61685;SDS011;47592;45.904;8.978;2022-09-09T17:47:08;13.50;;;10.85;;